CheckWX is a tool to help pilots better visualize weather data.  It is not intended as a substitute for an official pre-flight weather briefing.

08:34:37 UTC

PASI TAF
Sitka Rocky Gutierrez Airport
Sitka, Alaska, USA
PASI 260539Z 2606/2706 12017G25KT P6SM -RA SCT035 BKN045 WS020/16040KT FM261200 14020G35KT P6SM -RA OVC030 WS020/14050KT FM261800 14015G25KT P6SM -RA OVC030 WS020/16040KT FM270000 13010KT P6SM -RA OVC025 WS020/16030KT

Jan-26@
06:00 UTC

Jan-26 @ 06:00 UTC

Jan-26@
12:00 UTC

Jan-26 @ 12:00 UTC

PASI 260539Z 2606/2706 12017G25KT P6SM -RA SCT035 BKN045 WS020/16040KT
Wind
  • 120° at 17 KTS
  • {Gusting to 25 KTS
Conditions
Light Rain
Cloud Levels
  • Scattered at 3,500' AGL
  • Broken at 4,500' AGL

Jan-26@
12:00 UTC

Jan-26 @ 12:00 UTC

Jan-26@
18:00 UTC

Jan-26 @ 18:00 UTC

FM261200 14020G35KT P6SM -RA OVC030 WS020/14050KT

From

From Standard forecast or significant change

Wind
  • 140° at 20 KTS
  • {Gusting to 35 KTS
Conditions
Light Rain
Cloud Levels
  • Overcast at 3,000' AGL

Jan-26@
18:00 UTC

Jan-26 @ 18:00 UTC

Jan-27@
00:00 UTC

Jan-27 @ 00:00 UTC

FM261800 14015G25KT P6SM -RA OVC030 WS020/16040KT

From

From Standard forecast or significant change

Wind
  • 140° at 15 KTS
  • {Gusting to 25 KTS
Conditions
Light Rain
Cloud Levels
  • Overcast at 3,000' AGL

Jan-27@
00:00 UTC

Jan-27 @ 00:00 UTC

Jan-27@
06:00 UTC

Jan-27 @ 06:00 UTC

FM270000 13010KT P6SM -RA OVC025 WS020/16030KT

From

From Standard forecast or significant change

Wind
  • 130° at 10 KTS
Conditions
Light Rain
Cloud Levels
  • Overcast at 2,500' AGL